Time;durP1;ratioP1;P1;durP2;ratioP2;P2;SDS_P1;SDS_P2;PMS_P1;PMS_P2;Temp;Humidity;BMP_temperature;BMP_pressure;BME280_temperature;BME280_humidity;BME280_pressure;Samples;Min_cycle;Max_cycle;Signal;HPM_P1;HPM_P2
2021/07/08 00:02:09;;;;;;;4.63;2.63;;;20.50;99.90;;;;;;5073186;28;20488;-67
2021/07/08 00:04:37;;;;;;;9.82;3.10;;;20.40;99.90;;;;;;5072632;28;20028;-68
2021/07/08 00:07:04;;;;;;;6.88;2.70;;;20.30;99.90;;;;;;5071550;28;20028;-67
2021/07/08 00:09:30;;;;;;;5.32;3.08;;;20.30;99.90;;;;;;5071012;28;20466;-66
2021/07/08 00:11:56;;;;;;;5.38;2.75;;;20.20;99.90;;;;;;5071484;28;20033;-67
2021/07/08 00:14:22;;;;;;;8.93;2.88;;;20.30;99.90;;;;;;5070944;28;20430;-67
2021/07/08 00:16:48;;;;;;;3.92;2.70;;;20.20;99.90;;;;;;5071511;28;20020;-66
2021/07/08 00:19:13;;;;;;;4.03;2.33;;;20.10;99.90;;;;;;5071444;28;20032;-66
2021/07/08 00:21:40;;;;;;;7.40;3.25;;;20.10;99.90;;;;;;5070578;28;20028;-67
2021/07/08 00:24:06;;;;;;;4.00;2.28;;;20.10;99.90;;;;;;5066191;28;20057;-67
2021/07/08 00:26:32;;;;;;;3.60;2.33;;;20.10;99.90;;;;;;5033610;28;20025;-67
2021/07/08 00:28:58;;;;;;;6.28;2.85;;;20.00;99.90;;;;;;5034730;28;20028;-67
2021/07/08 00:31:24;;;;;;;7.15;2.60;;;20.00;99.90;;;;;;5051795;28;20079;-67
2021/07/08 00:33:49;;;;;;;3.58;2.10;;;20.10;99.90;;;;;;5034494;28;20025;-67
2021/07/08 00:36:15;;;;;;;4.38;2.17;;;20.10;99.90;;;;;;5034553;28;20166;-67
2021/07/08 00:38:41;;;;;;;3.70;2.67;;;20.10;99.90;;;;;;5051942;28;20632;-68
2021/07/08 00:41:06;;;;;;;7.18;2.63;;;20.20;99.90;;;;;;5052313;28;20052;-66
2021/07/08 00:43:32;;;;;;;2.75;2.42;;;20.20;99.90;;;;;;5033717;28;20122;-67
2021/07/08 00:45:58;;;;;;;3.83;2.15;;;20.20;99.90;;;;;;5034383;28;20056;-67
2021/07/08 00:48:24;;;;;;;8.88;2.33;;;20.20;99.90;;;;;;5033812;28;20025;-67
2021/07/08 00:50:51;;;;;;;5.35;2.47;;;20.10;99.90;;;;;;5034446;28;20089;-67
2021/07/08 00:53:20;;;;;;;7.65;2.72;;;20.10;99.90;;;;;;5052970;28;20044;-67
2021/07/08 00:55:51;;;;;;;4.22;1.98;;;20.10;99.90;;;;;;5033405;28;20074;-67
2021/07/08 00:58:17;;;;;;;3.25;2.22;;;20.10;99.90;;;;;;5034429;28;20351;-66
2021/07/08 01:00:43;;;;;;;6.15;2.03;;;20.00;99.90;;;;;;5033517;28;20047;-67
2021/07/08 01:03:10;;;;;;;2.92;2.03;;;20.10;99.90;;;;;;5034050;28;20076;-67
2021/07/08 01:05:41;;;;;;;6.20;4.00;;;20.10;99.90;;;;;;5033237;28;20036;-69
2021/07/08 01:08:09;;;;;;;8.90;4.88;;;20.10;99.90;;;;;;5051675;28;20033;-69
2021/07/08 01:10:35;;;;;;;8.50;3.40;;;20.10;99.90;;;;;;5050937;28;20032;-69
2021/07/08 01:13:01;;;;;;;8.15;3.25;;;20.10;99.90;;;;;;5051769;28;20513;-69
2021/07/08 01:15:27;;;;;;;5.35;2.78;;;20.10;99.90;;;;;;5033552;28;20025;-68
2021/07/08 01:17:53;;;;;;;5.25;2.63;;;20.00;99.90;;;;;;5034372;28;20055;-71
2021/07/08 01:20:20;;;;;;;5.90;2.30;;;20.00;99.90;;;;;;5033793;28;20029;-68
2021/07/08 01:22:57;;;;;;;5.00;2.35;;;20.00;99.90;;;;;;5051176;28;20054;-68
2021/07/08 01:25:24;;;;;;;3.38;2.47;;;19.90;99.90;;;;;;5064445;28;20452;-68
2021/07/08 01:27:51;;;;;;;4.60;2.20;;;19.80;99.90;;;;;;5070516;28;20029;-68
2021/07/08 01:30:17;;;;;;;3.65;1.95;;;19.90;99.90;;;;;;5070274;28;20028;-68
2021/07/08 01:32:43;;;;;;;4.88;2.38;;;19.90;99.90;;;;;;5071010;28;20039;-68
2021/07/08 01:35:10;;;;;;;6.70;2.28;;;19.90;99.90;;;;;;5070173;28;20024;-68
2021/07/08 01:37:37;;;;;;;5.55;2.70;;;19.90;99.90;;;;;;5070013;28;20031;-69
2021/07/08 01:40:05;;;;;;;10.40;2.95;;;19.90;99.90;;;;;;5070460;28;20021;-68
2021/07/08 01:42:31;;;;;;;7.38;2.38;;;19.80;99.90;;;;;;5071381;28;20371;-69
2021/07/08 01:44:57;;;;;;;5.80;2.78;;;19.80;99.90;;;;;;5071662;28;20020;-68
2021/07/08 01:47:23;;;;;;;5.40;2.30;;;19.70;99.90;;;;;;5071522;28;20028;-68
2021/07/08 01:49:49;;;;;;;4.35;2.20;;;19.50;99.90;;;;;;5070705;28;20029;-68
2021/07/08 01:52:15;;;;;;;4.20;1.83;;;19.50;99.90;;;;;;5070754;28;20036;-69
2021/07/08 01:54:41;;;;;;;5.72;2.17;;;19.50;99.90;;;;;;5069159;28;20028;-68
2021/07/08 01:57:06;;;;;;;2.50;1.45;;;19.60;99.90;;;;;;5071188;28;20031;-70
2021/07/08 01:59:32;;;;;;;2.67;2.08;;;19.60;99.90;;;;;;5069131;28;20029;-69
2021/07/08 02:01:58;;;;;;;5.80;2.42;;;19.60;99.90;;;;;;5070945;28;20027;-68
2021/07/08 02:04:23;;;;;;;7.30;2.17;;;19.60;99.90;;;;;;5069613;28;20381;-68
2021/07/08 02:06:49;;;;;;;2.63;1.63;;;19.70;99.90;;;;;;5068396;28;20032;-68
2021/07/08 02:09:15;;;;;;;3.50;2.17;;;19.70;99.90;;;;;;5068957;28;20033;-68
2021/07/08 02:11:41;;;;;;;2.78;1.77;;;19.70;99.90;;;;;;5070241;28;20040;-69
2021/07/08 02:14:06;;;;;;;3.55;2.25;;;19.70;99.90;;;;;;5069357;28;20056;-70
2021/07/08 02:16:33;;;;;;;6.10;2.00;;;19.70;99.90;;;;;;5070202;28;20457;-69
2021/07/08 02:18:59;;;;;;;6.15;2.47;;;19.70;99.90;;;;;;5070854;28;20059;-69
2021/07/08 02:21:25;;;;;;;3.83;2.15;;;19.70;99.90;;;;;;5070510;28;20059;-68
2021/07/08 02:23:51;;;;;;;4.43;2.22;;;19.70;99.90;;;;;;5065851;28;20056;-69
2021/07/08 02:26:17;;;;;;;4.28;1.92;;;19.60;99.90;;;;;;5032927;28;20029;-69
2021/07/08 02:28:43;;;;;;;5.22;1.90;;;19.60;99.90;;;;;;5032253;28;20033;-70
2021/07/08 02:31:09;;;;;;;3.83;2.33;;;19.60;99.90;;;;;;5050686;28;20140;-69
2021/07/08 02:33:36;;;;;;;6.57;1.70;;;19.60;99.90;;;;;;5050388;28;20032;-69
2021/07/08 02:36:02;;;;;;;5.28;1.80;;;19.60;99.90;;;;;;5032671;28;20048;-68
2021/07/08 02:38:28;;;;;;;3.13;1.75;;;19.60;99.90;;;;;;5032450;28;20025;-68
2021/07/08 02:40:54;;;;;;;8.38;1.52;;;19.60;99.90;;;;;;5050564;28;20123;-68
2021/07/08 02:43:20;;;;;;;3.33;1.60;;;19.70;99.90;;;;;;5050617;28;20037;-68
2021/07/08 02:45:46;;;;;;;8.95;1.98;;;19.60;99.90;;;;;;5031966;28;20358;-69
2021/07/08 02:48:15;;;;;;;6.40;1.77;;;19.60;99.90;;;;;;5050293;28;20033;-68
2021/07/08 02:50:44;;;;;;;5.75;2.28;;;19.60;99.90;;;;;;5049472;28;20040;-69
2021/07/08 02:53:11;;;;;;;8.10;2.00;;;19.50;99.90;;;;;;5032588;28;20069;-69
2021/07/08 02:55:38;;;;;;;5.30;1.75;;;19.40;99.90;;;;;;5031648;28;20028;-69
2021/07/08 02:58:04;;;;;;;5.53;2.20;;;19.40;99.90;;;;;;5032532;28;20056;-69
2021/07/08 03:00:31;;;;;;;10.55;2.40;;;19.40;99.90;;;;;;5032744;28;20068;-71
2021/07/08 03:02:57;;;;;;;3.35;1.80;;;19.40;99.90;;;;;;5032586;28;20025;-69
2021/07/08 03:05:23;;;;;;;3.38;1.58;;;19.40;99.90;;;;;;5032483;28;20120;-69
2021/07/08 03:07:49;;;;;;;2.85;1.63;;;19.40;99.90;;;;;;5031411;28;20074;-69
2021/07/08 03:10:19;;;;;;;2.85;1.55;;;19.40;99.90;;;;;;5032261;28;20045;-69
2021/07/08 03:12:45;;;;;;;1.92;1.45;;;19.40;99.90;;;;;;5031748;28;20435;-68
2021/07/08 03:15:12;;;;;;;5.00;2.72;;;19.40;99.90;;;;;;5032492;28;20123;-68
2021/07/08 03:17:39;;;;;;;2.67;1.90;;;19.30;99.90;;;;;;5031894;28;20106;-69
2021/07/08 03:20:10;;;;;;;3.90;1.52;;;19.40;99.90;;;;;;5053161;28;20485;-69
2021/07/08 03:22:36;;;;;;;5.30;1.90;;;19.40;99.90;;;;;;5035569;28;20037;-69
2021/07/08 03:25:03;;;;;;;4.03;1.88;;;19.20;99.90;;;;;;5060267;28;20513;-71
2021/07/08 03:27:28;;;;;;;4.80;1.70;;;19.20;99.90;;;;;;5074095;28;20036;-68
2021/07/08 03:29:54;;;;;;;3.13;1.92;;;19.20;99.90;;;;;;5073798;28;20020;-71
2021/07/08 03:32:19;;;;;;;3.42;1.60;;;19.20;99.90;;;;;;5074003;28;20490;-69
2021/07/08 03:34:45;;;;;;;7.50;2.25;;;19.20;99.90;;;;;;5071616;28;20454;-68
2021/07/08 03:37:11;;;;;;;7.07;1.92;;;19.20;99.90;;;;;;5073897;28;20063;-69
2021/07/08 03:39:36;;;;;;;2.22;1.60;;;19.20;99.90;;;;;;5072888;28;20089;-69
2021/07/08 03:42:02;;;;;;;3.63;1.67;;;19.20;99.90;;;;;;5071922;28;20035;-69
2021/07/08 03:44:28;;;;;;;10.93;2.47;;;19.20;99.90;;;;;;5073545;28;20031;-69
2021/07/08 03:46:53;;;;;;;3.15;1.90;;;19.20;99.90;;;;;;5070943;28;20036;-71
2021/07/08 03:49:19;;;;;;;3.88;2.22;;;19.30;99.90;;;;;;5073377;28;20051;-69
2021/07/08 03:51:44;;;;;;;3.53;2.00;;;19.30;99.90;;;;;;5072861;28;20186;-69
2021/07/08 03:54:10;;;;;;;6.38;3.72;;;19.30;99.90;;;;;;5071849;28;20127;-69
2021/07/08 03:56:36;;;;;;;5.50;3.45;;;19.40;99.90;;;;;;5071238;28;20060;-70
2021/07/08 03:59:01;;;;;;;4.47;2.72;;;19.30;99.90;;;;;;5073185;28;20032;-69
2021/07/08 04:01:27;;;;;;;3.92;1.80;;;19.30;99.90;;;;;;5071432;28;20031;-69
2021/07/08 04:03:53;;;;;;;4.65;1.52;;;19.30;99.90;;;;;;5071021;28;20029;-69
2021/07/08 04:06:18;;;;;;;6.07;1.80;;;19.30;99.90;;;;;;5072903;28;20319;-70
2021/07/08 04:08:44;;;;;;;5.10;1.92;;;19.30;99.90;;;;;;5070801;28;20020;-69
2021/07/08 04:11:10;;;;;;;4.25;1.63;;;19.30;99.90;;;;;;5071310;28;20105;-70
2021/07/08 04:13:36;;;;;;;4.38;2.17;;;19.30;99.90;;;;;;5070660;28;20031;-70
2021/07/08 04:16:01;;;;;;;5.38;2.13;;;19.30;99.90;;;;;;5072841;28;20029;-69
2021/07/08 04:18:27;;;;;;;3.97;1.70;;;19.40;99.90;;;;;;5071346;28;20063;-70
2021/07/08 04:20:53;;;;;;;5.90;1.70;;;19.30;99.90;;;;;;5071777;28;20466;-69
2021/07/08 04:23:19;;;;;;;2.50;1.50;;;19.30;99.90;;;;;;5072422;28;20471;-70
2021/07/08 04:25:45;;;;;;;3.72;2.20;;;19.30;99.90;;;;;;5052415;28;20482;-69
2021/07/08 04:28:12;;;;;;;2.97;1.58;;;19.30;99.90;;;;;;5052589;28;20032;-69
2021/07/08 04:30:38;;;;;;;4.13;1.70;;;19.30;99.90;;;;;;5050493;28;20478;-70
2021/07/08 04:33:05;;;;;;;6.75;2.30;;;19.30;99.90;;;;;;5034230;28;20033;-69
2021/07/08 04:35:34;;;;;;;3.67;1.90;;;19.30;99.90;;;;;;5052053;28;20032;-69
2021/07/08 04:37:59;;;;;;;1.60;1.17;;;19.30;99.90;;;;;;5051408;28;20104;-70
2021/07/08 04:40:25;;;;;;;3.50;1.70;;;19.30;99.90;;;;;;5034249;28;20609;-70
2021/07/08 04:42:52;;;;;;;5.28;2.00;;;19.30;99.90;;;;;;5033583;28;20028;-70
2021/07/08 04:45:19;;;;;;;3.83;1.50;;;19.40;99.90;;;;;;5052394;28;20382;-69
2021/07/08 04:47:46;;;;;;;3.15;1.42;;;19.40;99.90;;;;;;5051440;28;20029;-70
2021/07/08 04:50:22;;;;;;;8.80;1.15;;;19.50;99.90;;;;;;5051664;28;20036;-68
2021/07/08 04:52:48;;;;;;;3.47;1.48;;;19.60;99.90;;;;;;5051239;28;20040;-70
2021/07/08 04:55:16;;;;;;;3.90;1.10;;;19.60;99.90;;;;;;5051808;28;20036;-69
2021/07/08 04:57:41;;;;;;;2.65;1.10;;;19.50;99.90;;;;;;5033118;28;20091;-69
2021/07/08 05:00:10;;;;;;;7.45;1.48;;;19.50;99.90;;;;;;5033752;28;20438;-69
2021/07/08 05:02:40;;;;;;;3.95;1.35;;;19.50;99.90;;;;;;5033731;28;20056;-70
2021/07/08 05:05:08;;;;;;;3.03;1.48;;;19.60;99.90;;;;;;5034067;28;20124;-70
2021/07/08 05:07:34;;;;;;;9.30;1.65;;;19.60;99.90;;;;;;5051524;28;20047;-71
2021/07/08 05:10:00;;;;;;;4.72;1.20;;;19.60;99.90;;;;;;5032948;28;20025;-70
2021/07/08 05:12:26;;;;;;;6.22;1.95;;;19.60;99.90;;;;;;5036118;28;20104;-71
2021/07/08 05:14:51;;;;;;;2.92;1.25;;;19.60;99.90;;;;;;5051660;28;20434;-72
2021/07/08 05:17:19;;;;;;;4.70;1.58;;;19.60;99.90;;;;;;5033930;28;20099;-70
2021/07/08 05:19:44;;;;;;;3.05;1.73;;;19.60;99.90;;;;;;5033034;28;20116;-70
2021/07/08 05:22:10;;;;;;;3.55;1.40;;;19.60;99.90;;;;;;5033301;28;20483;-71
2021/07/08 05:24:37;;;;;;;4.95;1.88;;;19.60;99.90;;;;;;5051248;28;20052;-71
2021/07/08 05:27:03;;;;;;;7.70;1.90;;;19.50;99.90;;;;;;5032822;28;20072;-70
2021/07/08 05:29:30;;;;;;;2.25;1.25;;;19.50;99.90;;;;;;5035125;28;20036;-68
2021/07/08 05:31:56;;;;;;;4.72;2.33;;;19.50;99.90;;;;;;5038805;28;20041;-68
2021/07/08 05:34:21;;;;;;;8.85;3.13;;;19.50;99.90;;;;;;5053086;28;20162;-68
2021/07/08 05:36:47;;;;;;;7.88;2.75;;;19.60;99.90;;;;;;5070184;28;20074;-69
2021/07/08 05:39:13;;;;;;;7.47;2.72;;;19.50;99.90;;;;;;5052824;28;20457;-72
2021/07/08 05:41:40;;;;;;;2.33;1.45;;;19.50;99.90;;;;;;5052224;28;20111;-55
2021/07/08 05:44:06;;;;;;;4.28;1.58;;;20.10;99.90;;;;;;5070734;28;20115;-54
2021/07/08 05:46:32;;;;;;;7.65;2.47;;;20.70;99.90;;;;;;5048568;28;20021;-53
2021/07/08 05:48:58;;;;;;;3.40;1.75;;;20.90;99.90;;;;;;5046056;28;20079;-54
2021/07/08 05:51:23;;;;;;;8.25;2.65;;;21.00;99.90;;;;;;5070630;28;20120;-53
2021/07/08 05:53:50;;;;;;;13.15;2.13;;;21.20;99.90;;;;;;5052061;28;20029;-54
2021/07/08 05:56:15;;;;;;;6.07;2.35;;;21.30;99.90;;;;;;5070761;28;20090;-55
2021/07/08 05:58:41;;;;;;;14.55;2.42;;;21.40;99.90;;;;;;5051497;28;20021;-64
2021/07/08 06:01:07;;;;;;;7.07;1.92;;;21.60;99.90;;;;;;5069916;28;20106;-53
2021/07/08 06:03:33;;;;;;;4.20;2.15;;;21.60;99.90;;;;;;5052167;28;20518;-54
2021/07/08 06:05:58;;;;;;;7.30;1.60;;;21.60;99.90;;;;;;5069136;28;20108;-53
2021/07/08 06:08:24;;;;;;;10.93;2.30;;;21.50;99.90;;;;;;5051582;28;20083;-54
2021/07/08 06:10:50;;;;;;;10.70;1.45;;;21.50;99.90;;;;;;5051253;28;20028;-54
2021/07/08 06:13:15;;;;;;;9.45;1.73;;;21.60;99.90;;;;;;5069886;28;20067;-53
2021/07/08 06:15:42;;;;;;;3.95;1.80;;;21.60;99.90;;;;;;5069601;28;20126;-56
2021/07/08 06:18:07;;;;;;;3.53;1.70;;;21.60;99.90;;;;;;5070059;28;20126;-54
2021/07/08 06:20:33;;;;;;;3.35;2.25;;;21.60;99.90;;;;;;5051725;28;20461;-53
2021/07/08 06:22:59;;;;;;;5.10;1.70;;;21.60;99.90;;;;;;5051419;28;20035;-54
2021/07/08 06:25:29;;;;;;;3.45;1.60;;;21.60;99.90;;;;;;5083250;28;20055;-53
2021/07/08 06:27:55;;;;;;;5.55;1.90;;;21.70;99.90;;;;;;5088193;28;20509;-53
2021/07/08 06:30:20;;;;;;;7.30;2.35;;;21.70;99.90;;;;;;5088914;28;20131;-54
2021/07/08 06:32:46;;;;;;;8.80;2.35;;;21.80;99.90;;;;;;5090407;28;20402;-54
2021/07/08 06:35:17;;;;;;;4.47;1.80;;;21.80;99.90;;;;;;5088930;28;20082;-55
2021/07/08 06:37:43;;;;;;;5.30;1.73;;;21.80;99.90;;;;;;5088788;28;20078;-54
2021/07/08 06:40:10;;;;;;;6.97;2.45;;;21.90;99.90;;;;;;5088313;28;20289;-55
2021/07/08 06:42:36;;;;;;;4.60;2.50;;;22.00;99.90;;;;;;5089228;28;20504;-53
2021/07/08 06:45:03;;;;;;;12.00;4.68;;;22.00;99.90;;;;;;5088487;28;20101;-55
2021/07/08 06:47:32;;;;;;;4.82;3.20;;;22.10;99.90;;;;;;5088563;28;20059;-55
2021/07/08 06:49:57;;;;;;;6.15;3.60;;;22.10;99.90;;;;;;5087680;28;20032;-55
2021/07/08 06:52:23;;;;;;;5.55;3.58;;;22.10;99.90;;;;;;5087983;28;20051;-55
2021/07/08 06:54:49;;;;;;;7.03;3.72;;;22.10;99.90;;;;;;5091253;28;20039;-54
2021/07/08 06:57:14;;;;;;;4.95;3.45;;;22.20;99.90;;;;;;5094903;28;20024;-55
2021/07/08 06:59:40;;;;;;;4.85;2.95;;;22.20;99.90;;;;;;5094034;28;20077;-55
2021/07/08 07:02:06;;;;;;;4.40;2.55;;;22.20;99.90;;;;;;5093610;28;20039;-54
2021/07/08 07:04:32;;;;;;;3.75;2.33;;;22.20;99.90;;;;;;5093625;28;20020;-54
2021/07/08 07:06:57;;;;;;;5.05;2.15;;;22.20;99.90;;;;;;5093218;28;20032;-54
2021/07/08 07:09:23;;;;;;;4.60;2.00;;;22.20;99.90;;;;;;5091943;28;20453;-53
2021/07/08 07:11:49;;;;;;;5.85;2.40;;;22.30;99.90;;;;;;5091250;28;20492;-54
2021/07/08 07:14:15;;;;;;;5.15;2.10;;;22.30;99.90;;;;;;5092356;28;20511;-53
2021/07/08 07:16:40;;;;;;;10.05;2.03;;;22.20;99.90;;;;;;5093330;28;20028;-54
2021/07/08 07:19:06;;;;;;;4.47;1.95;;;22.20;99.90;;;;;;5091483;28;20064;-56
2021/07/08 07:21:31;;;;;;;5.47;1.60;;;22.00;99.90;;;;;;5091356;28;20119;-53
2021/07/08 07:23:58;;;;;;;4.53;1.90;;;22.10;99.90;;;;;;5090848;28;20094;-54
2021/07/08 07:26:24;;;;;;;5.85;1.83;;;22.30;99.90;;;;;;5093275;28;20073;-54
2021/07/08 07:28:50;;;;;;;5.28;1.58;;;22.40;99.90;;;;;;5091199;28;20024;-54
2021/07/08 07:31:16;;;;;;;4.35;1.58;;;22.50;99.90;;;;;;5091814;28;20035;-54
2021/07/08 07:33:45;;;;;;;2.10;1.48;;;22.50;99.90;;;;;;5093911;28;20120;-54
2021/07/08 07:36:11;;;;;;;3.45;1.20;;;22.60;99.90;;;;;;5091359;28;20359;-54
2021/07/08 07:38:39;;;;;;;7.50;2.10;;;22.60;99.90;;;;;;5094486;28;20038;-55
2021/07/08 07:41:06;;;;;;;2.67;1.55;;;22.80;99.90;;;;;;5093670;28;20430;-54
2021/07/08 07:43:31;;;;;;;5.03;1.83;;;22.70;99.90;;;;;;5092432;28;20355;-54
2021/07/08 07:45:57;;;;;;;5.47;1.58;;;22.70;99.90;;;;;;5092467;28;20100;-54
2021/07/08 07:48:23;;;;;;;5.93;1.73;;;22.80;99.90;;;;;;5092884;28;20027;-53
2021/07/08 07:50:48;;;;;;;4.10;1.50;;;22.70;99.90;;;;;;5091498;28;20040;-58
2021/07/08 07:53:14;;;;;;;2.90;1.33;;;22.70;99.90;;;;;;5070051;28;20134;-54
2021/07/08 07:55:40;;;;;;;7.65;1.80;;;22.90;99.90;;;;;;5072598;28;20021;-55
2021/07/08 07:58:05;;;;;;;6.43;1.45;;;22.90;99.90;;;;;;5082816;28;20028;-55
2021/07/08 08:00:32;;;;;;;4.65;1.52;;;22.90;99.90;;;;;;5093146;28;20028;-54
2021/07/08 08:02:58;;;;;;;5.10;1.65;;;23.00;99.90;;;;;;5092496;28;20032;-53
2021/07/08 08:10:44;;;;;;;9.80;1.48;;;23.20;99.90;;;;;;5091921;28;20440;-54
2021/07/08 08:13:11;;;;;;;5.70;1.40;;;23.20;99.90;;;;;;5089932;28;20377;-53
2021/07/08 08:15:37;;;;;;;3.60;1.60;;;23.20;99.90;;;;;;5090877;28;20021;-56
2021/07/08 08:18:04;;;;;;;6.00;1.45;;;23.20;99.90;;;;;;5089397;28;20024;-54
2021/07/08 08:20:30;;;;;;;5.93;1.60;;;23.30;99.90;;;;;;5090501;28;20448;-55
2021/07/08 08:22:57;;;;;;;9.93;2.78;;;23.30;99.90;;;;;;5091175;28;20048;-55
2021/07/08 08:25:23;;;;;;;5.32;1.48;;;23.30;99.90;;;;;;5090022;28;20070;-55
2021/07/08 08:27:49;;;;;;;4.55;1.73;;;23.40;99.90;;;;;;5078610;28;20032;-54
2021/07/08 08:30:15;;;;;;;12.07;1.92;;;23.50;99.90;;;;;;5077172;28;20401;-55
2021/07/08 08:32:42;;;;;;;4.30;1.23;;;23.40;99.90;;;;;;5070070;28;20024;-55
2021/07/08 08:35:09;;;;;;;4.32;1.30;;;23.50;99.90;;;;;;5070645;28;20032;-54
2021/07/08 08:37:35;;;;;;;3.47;1.67;;;23.50;99.90;;;;;;5070156;28;20111;-54
2021/07/08 08:40:02;;;;;;;5.50;1.10;;;23.50;99.90;;;;;;5070678;28;20024;-55
2021/07/08 08:42:28;;;;;;;6.03;1.50;;;23.70;99.90;;;;;;5068909;28;20039;-54
2021/07/08 08:44:54;;;;;;;2.70;1.35;;;24.10;99.90;;;;;;5073812;28;20036;-60
2021/07/08 08:47:20;;;;;;;5.32;1.65;;;24.60;99.90;;;;;;5080979;28;20565;-56
2021/07/08 08:49:46;;;;;;;2.85;1.40;;;24.90;99.90;;;;;;5075407;28;20102;-54
2021/07/08 08:52:13;;;;;;;2.58;1.52;;;25.20;99.90;;;;;;5080836;28;20082;-54
2021/07/08 08:54:43;;;;;;;4.32;1.77;;;25.30;99.90;;;;;;5076427;28;20028;-54
2021/07/08 08:57:09;;;;;;;5.63;1.20;;;25.30;99.90;;;;;;5072940;28;20369;-54
2021/07/08 08:59:35;;;;;;;5.55;1.38;;;25.10;99.90;;;;;;5077353;28;20410;-54
2021/07/08 09:02:17;;;;;;;8.00;1.83;;;25.10;99.90;;;;;;5075996;28;20635;-54
2021/07/08 09:04:48;;;;;;;7.93;1.98;;;25.10;99.90;;;;;;5071492;28;20102;-56
2021/07/08 09:07:30;;;;;;;9.15;1.52;;;24.80;99.90;;;;;;5077710;28;20157;-54
2021/07/08 09:09:59;;;;;;;27.63;6.68;;;24.90;99.90;;;;;;5074018;28;20040;-55
2021/07/08 09:12:26;;;;;;;16.30;3.40;;;25.00;99.90;;;;;;5087104;28;20032;-55
2021/07/08 09:15:13;;;;;;;4.03;1.77;;;25.10;99.90;;;;;;5074744;28;20112;-61
2021/07/08 09:17:42;;;;;;;4.68;1.13;;;25.30;99.90;;;;;;5078044;28;20025;-56
2021/07/08 09:20:12;;;;;;;2.80;1.27;;;25.30;99.90;;;;;;5074501;28;20446;-55
2021/07/08 09:22:38;;;;;;;11.07;1.65;;;25.60;99.90;;;;;;5070914;28;20160;-55
2021/07/08 09:25:19;;;;;;;8.73;1.33;;;25.70;99.90;;;;;;5055910;28;20068;-54
2021/07/08 09:27:46;;;;;;;4.75;1.40;;;26.00;99.90;;;;;;5032973;28;20025;-56
2021/07/08 09:30:31;;;;;;;6.38;1.17;;;26.10;99.90;;;;;;5032557;28;20094;-55
2021/07/08 09:32:56;;;;;;;4.32;1.30;;;26.30;99.90;;;;;;5051307;28;20119;-56
2021/07/08 09:35:32;;;;;;;4.78;0.90;;;26.70;99.20;;;;;;5051524;28;20447;-55
2021/07/08 09:38:22;;;;;;;3.33;1.20;;;26.50;99.70;;;;;;5032253;28;20502;-57
2021/07/08 09:41:07;;;;;;;4.57;0.70;;;26.40;99.40;;;;;;5051331;28;20485;-56
2021/07/08 09:43:34;;;;;;;1.80;1.17;;;26.50;98.50;;;;;;5033128;28;20102;-55
2021/07/08 09:46:00;;;;;;;3.25;0.77;;;26.50;98.30;;;;;;5049463;28;20090;-55
2021/07/08 09:48:26;;;;;;;2.53;1.13;;;26.60;98.40;;;;;;5051481;28;20025;-55
2021/07/08 09:50:51;;;;;;;7.32;1.25;;;26.50;98.70;;;;;;5068927;28;20036;-62
2021/07/08 09:53:19;;;;;;;5.55;1.10;;;26.40;98.40;;;;;;5068953;28;20036;-56
2021/07/08 09:58:55;;;;;;;;;;;26.50;97.60;;;;;;5066852;28;20456;-55
2021/07/08 10:01:23;;;;;;;2.28;0.77;;;26.50;98.10;;;;;;5031123;28;19912;-55
2021/07/08 10:03:49;;;;;;;3.17;0.90;;;26.50;98.00;;;;;;5031530;28;20149;-56
2021/07/08 10:06:16;;;;;;;2.30;0.80;;;26.80;97.90;;;;;;5048262;28;20111;-54
2021/07/08 10:08:43;;;;;;;2.40;0.77;;;26.70;97.10;;;;;;5049039;28;20025;-54
2021/07/08 10:11:13;;;;;;;3.55;0.98;;;26.70;97.30;;;;;;5046993;28;20024;-57
2021/07/08 10:13:40;;;;;;;3.25;1.08;;;27.00;96.80;;;;;;5066446;28;20028;-55
2021/07/08 10:16:07;;;;;;;4.68;0.90;;;27.30;96.90;;;;;;5050180;28;20037;-55
2021/07/08 10:18:37;;;;;;;1.67;0.80;;;27.40;96.00;;;;;;5071362;28;20020;-55
2021/07/08 10:21:04;;;;;;;2.15;0.88;;;27.70;96.10;;;;;;5072017;28;20076;-56
2021/07/08 10:23:34;;;;;;;1.27;0.60;;;27.50;95.50;;;;;;5090919;28;20119;-57
2021/07/08 10:26:01;;;;;;;2.95;1.02;;;27.50;95.40;;;;;;5090327;28;20107;-72
2021/07/08 10:28:30;;;;;;;1.48;0.82;;;27.80;94.90;;;;;;5091232;28;20036;-72
2021/07/08 10:30:56;;;;;;;3.90;0.60;;;27.90;94.70;;;;;;5075223;28;20039;-72
2021/07/08 10:33:22;;;;;;;0.90;0.60;;;27.60;94.40;;;;;;5094792;28;20020;-73
2021/07/08 10:35:50;;;;;;;3.20;0.60;;;27.60;93.70;;;;;;5076820;28;20130;-73
2021/07/08 10:38:28;;;;;;;1.55;0.80;;;27.70;94.30;;;;;;5076344;28;20051;-74
2021/07/08 10:40:56;;;;;;;1.98;0.65;;;27.20;94.40;;;;;;5095439;28;20025;-73
2021/07/08 10:43:43;;;;;;;6.53;0.63;;;27.20;94.00;;;;;;5076631;28;20568;-73
2021/07/08 10:46:14;;;;;;;1.55;0.70;;;27.40;93.70;;;;;;5094805;28;20024;-71
2021/07/08 10:48:42;;;;;;;1.67;0.50;;;27.50;92.80;;;;;;5076196;28;20028;-72
2021/07/08 10:51:14;;;;;;;2.20;0.70;;;27.10;93.20;;;;;;5093533;28;20185;-73
2021/07/08 10:53:42;;;;;;;2.83;0.60;;;26.70;94.10;;;;;;5093904;28;20036;-73
2021/07/08 10:56:13;;;;;;;1.35;0.65;;;26.90;93.60;;;;;;5075343;28;20028;-73
2021/07/08 10:58:51;;;;;;;0.63;0.45;;;26.80;94.00;;;;;;5095301;28;20473;-73
2021/07/08 11:01:27;;;;;;;1.50;0.70;;;26.60;93.80;;;;;;5094853;28;20432;-74
2021/07/08 11:03:53;;;;;;;3.17;0.65;;;26.80;94.60;;;;;;5094167;28;20020;-72
2021/07/08 11:06:39;;;;;;;2.25;0.80;;;26.30;94.50;;;;;;5093276;28;20078;-72
2021/07/08 11:09:12;;;;;;;3.08;0.55;;;26.10;94.50;;;;;;5074962;28;20032;-73
2021/07/08 11:11:38;;;;;;;0.90;0.52;;;26.10;95.20;;;;;;5075677;28;20085;-71
2021/07/08 11:14:07;;;;;;;2.88;0.63;;;26.10;93.60;;;;;;5074820;28;20028;-71
2021/07/08 11:16:53;;;;;;;0.80;0.50;;;25.80;94.80;;;;;;5094092;28;20024;-73
2021/07/08 11:19:22;;;;;;;1.48;0.63;;;25.90;94.00;;;;;;5075126;28;20151;-73
2021/07/08 11:21:55;;;;;;;2.45;0.90;;;26.00;94.20;;;;;;5075267;28;20495;-74
2021/07/08 11:24:22;;;;;;;2.75;0.63;;;26.30;94.10;;;;;;5092548;28;20086;-73
2021/07/08 11:27:06;;;;;;;1.38;0.75;;;26.10;94.70;;;;;;5074487;28;20110;-74
2021/07/08 11:29:54;;;;;;;4.18;0.85;;;26.20;94.80;;;;;;5092480;28;20024;-73
2021/07/08 11:32:25;;;;;;;3.65;0.98;;;26.40;94.20;;;;;;5073596;28;20027;-73
2021/07/08 11:34:51;;;;;;;2.40;0.75;;;26.30;94.30;;;;;;5092390;28;20404;-73
2021/07/08 11:37:28;;;;;;;7.32;2.13;;;26.20;94.80;;;;;;5073776;28;20028;-73
2021/07/08 11:39:57;;;;;;;2.13;0.75;;;26.20;93.20;;;;;;5093142;28;20054;-72
2021/07/08 11:42:24;;;;;;;1.40;0.73;;;26.20;93.50;;;;;;5074310;28;20028;-73
2021/07/08 11:44:53;;;;;;;2.60;0.68;;;26.30;94.00;;;;;;5074653;28;20461;-72
2021/07/08 11:47:19;;;;;;;2.33;0.47;;;26.50;93.90;;;;;;5074312;28;20029;-72
2021/07/08 11:49:48;;;;;;;2.40;0.70;;;26.50;93.50;;;;;;5092751;28;20059;-72
2021/07/08 11:52:22;;;;;;;5.78;0.95;;;26.60;94.00;;;;;;5073608;28;20145;-73
2021/07/08 11:54:54;;;;;;;1.02;0.80;;;26.20;93.80;;;;;;5074699;28;20410;-72
2021/07/08 11:57:21;;;;;;;2.08;0.60;;;26.00;93.60;;;;;;5073732;28;20380;-74
2021/07/08 11:59:48;;;;;;;2.50;0.60;;;25.70;94.70;;;;;;5074116;28;20028;-72
2021/07/08 12:02:34;;;;;;;6.93;0.75;;;25.80;94.70;;;;;;5072389;28;20058;-72
2021/07/08 12:05:14;;;;;;;2.45;1.00;;;25.60;94.20;;;;;;5073841;28;20107;-73
2021/07/08 12:07:57;;;;;;;2.15;0.75;;;25.60;94.10;;;;;;5074132;28;20028;-73
2021/07/08 12:10:26;;;;;;;1.10;0.80;;;25.70;94.10;;;;;;5091358;28;20031;-72
2021/07/08 12:12:54;;;;;;;2.83;0.60;;;25.50;93.50;;;;;;5091625;28;20432;-73
2021/07/08 12:15:21;;;;;;;0.70;0.40;;;25.60;94.00;;;;;;5090590;28;20373;-73
2021/07/08 12:17:55;;;;;;;3.47;0.95;;;25.50;94.00;;;;;;5073434;28;20024;-74
2021/07/08 12:20:21;;;;;;;3.75;0.90;;;25.50;93.70;;;;;;5072578;28;20193;-72
2021/07/08 12:23:02;;;;;;;1.23;1.00;;;25.30;94.00;;;;;;5073048;28;20032;-73
2021/07/08 12:25:30;;;;;;;1.48;0.93;;;25.20;94.20;;;;;;5051817;28;1109466;-72
2021/07/08 12:27:57;;;;;;;1.67;0.95;;;25.20;94.30;;;;;;5111501;28;20107;-71
2021/07/08 12:30:26;;;;;;;1.45;1.35;;;25.20;94.80;;;;;;5110508;28;20435;-71
2021/07/08 12:33:13;;;;;;;3.65;1.20;;;25.10;95.30;;;;;;5111888;28;20049;-72
2021/07/08 12:35:45;;;;;;;2.47;0.75;;;25.10;95.30;;;;;;5112043;28;20144;-72
2021/07/08 12:38:14;;;;;;;2.28;0.90;;;24.70;95.60;;;;;;5110911;28;20024;-73
2021/07/08 12:40:43;;;;;;;1.25;0.85;;;24.90;95.90;;;;;;5112973;28;20042;-73
2021/07/08 12:43:13;;;;;;;1.55;1.10;;;24.90;96.40;;;;;;5112446;28;20058;-74
2021/07/08 12:45:40;;;;;;;2.33;0.93;;;24.70;96.50;;;;;;5111535;28;20111;-74
2021/07/08 12:48:12;;;;;;;1.35;1.00;;;24.70;96.80;;;;;;5111389;28;20055;-73
2021/07/08 12:50:41;;;;;;;1.58;0.80;;;24.80;96.40;;;;;;5111702;28;20028;-74
2021/07/08 12:53:15;;;;;;;3.25;0.73;;;24.70;96.60;;;;;;5110519;28;20066;-73
2021/07/08 12:55:48;;;;;;;1.42;1.10;;;24.60;96.90;;;;;;5111981;28;20126;-73
2021/07/08 12:58:20;;;;;;;1.42;0.90;;;24.60;97.20;;;;;;5111277;28;20104;-74